createdAt,value
2019-05-30T00:00:16.527Z,60.39
2019-05-30T00:04:14.222Z,60.36
2019-05-30T00:08:19.884Z,60.35
2019-05-30T00:12:25.567Z,58.46
2019-05-30T00:16:31.315Z,59.63
2019-05-30T00:20:37.004Z,59.21
2019-05-30T00:24:42.703Z,60.74
2019-05-30T00:28:48.444Z,58.34
2019-05-30T00:32:54.299Z,58.71
2019-05-30T00:37:00.039Z,60.77
2019-05-30T00:41:06.200Z,59.38
2019-05-30T00:45:21.031Z,60.31
2019-05-30T00:49:20.121Z,58.71
2019-05-30T00:53:26.307Z,58.68
2019-05-30T00:57:31.970Z,61.04
2019-05-30T01:01:37.672Z,59.65
2019-05-30T01:05:43.415Z,62.64
2019-05-30T01:09:49.119Z,58.90
2019-05-30T01:13:54.813Z,58.63
2019-05-30T01:18:01.049Z,61.68
2019-05-30T01:22:07.571Z,59.38
2019-05-30T01:26:13.643Z,61.86
2019-05-30T01:30:20.378Z,60.59
2019-05-30T01:34:26.069Z,59.49
2019-05-30T01:38:31.771Z,62.09
2019-05-30T01:42:37.531Z,61.19
2019-05-30T01:46:43.284Z,59.99
2019-05-30T01:50:49.043Z,58.88
2019-05-30T01:54:54.709Z,58.89
2019-05-30T01:59:00.702Z,61.29
2019-05-30T02:03:07.138Z,59.26
2019-05-30T02:07:13.047Z,58.42
2019-05-30T02:11:18.726Z,59.65
2019-05-30T02:15:24.632Z,61.09
2019-05-30T02:19:30.371Z,60.97
2019-05-30T02:23:36.072Z,59.78
2019-05-30T02:27:41.819Z,61.05
2019-05-30T02:31:47.579Z,58.91
2019-05-30T02:35:53.345Z,62.05
2019-05-30T02:40:01.028Z,60.49
2019-05-30T02:44:07.716Z,58.98
2019-05-30T02:48:14.294Z,61.13
2019-05-30T02:52:19.977Z,61.87
2019-05-30T02:56:25.655Z,62.75
2019-05-30T03:00:37.521Z,62.27
2019-05-30T03:04:43.192Z,61.00
2019-05-30T03:08:49.971Z,59.57
2019-05-30T03:12:55.856Z,59.74
2019-05-30T03:17:02.575Z,60.26
2019-05-30T03:21:12.437Z,59.40
2019-05-30T03:25:17.045Z,59.17
2019-05-30T03:29:22.865Z,59.35
2019-05-30T03:33:39.330Z,60.41
2019-05-30T03:37:36.360Z,62.25
2019-05-30T03:41:42.103Z,61.28
2019-05-30T03:45:48.186Z,60.76
2019-05-30T03:49:56.364Z,60.93
2019-05-30T03:54:04.989Z,61.80
2019-05-30T03:58:29.273Z,60.39
2019-05-30T04:02:57.431Z,60.93
2019-05-30T04:07:15.871Z,60.48
2019-05-30T04:11:26.338Z,60.94
2019-05-30T04:15:35.939Z,60.26
2019-05-30T04:19:41.762Z,59.45
2019-05-30T04:23:47.519Z,59.48
2019-05-30T04:27:53.746Z,59.03
2019-05-30T04:31:59.465Z,58.42
2019-05-30T04:36:05.212Z,61.46
2019-05-30T04:40:13.266Z,58.70
2019-05-30T04:44:20.398Z,61.54
2019-05-30T04:48:26.287Z,57.93
2019-05-30T04:52:32.065Z,57.71
2019-05-30T04:56:37.817Z,57.52
2019-05-30T05:00:43.608Z,57.01
2019-05-30T05:04:49.293Z,56.97
2019-05-30T05:08:55.027Z,57.40
2019-05-30T05:13:00.664Z,57.52
2019-05-30T05:17:06.382Z,56.95
2019-05-30T05:21:12.805Z,56.73
2019-05-30T05:25:19.506Z,56.84
2019-05-30T05:29:26.421Z,57.03
2019-05-30T05:33:33.142Z,56.67
2019-05-30T05:37:38.856Z,56.52
2019-05-30T05:41:44.533Z,56.47
2019-05-30T05:45:51.124Z,56.30
2019-05-30T05:49:56.834Z,56.11
2019-05-30T05:54:02.587Z,56.33
2019-05-30T05:58:08.254Z,55.91
2019-05-30T06:02:14.212Z,55.96
2019-05-30T06:06:21.192Z,56.26
2019-05-30T06:10:27.981Z,56.32
2019-05-30T06:14:33.850Z,56.09
2019-05-30T06:18:39.621Z,56.07
2019-05-30T06:22:45.298Z,55.69
2019-05-30T06:26:51.012Z,55.66
2019-05-30T06:30:59.061Z,55.03
2019-05-30T06:35:07.150Z,54.83
2019-05-30T06:39:12.871Z,54.25
2019-05-30T06:43:21.821Z,54.14
2019-05-30T06:47:28.468Z,53.61
2019-05-30T06:51:34.363Z,52.78
2019-05-30T06:55:40.322Z,52.72
2019-05-30T06:59:46.050Z,52.66
2019-05-30T07:03:51.883Z,51.54
2019-05-30T07:07:57.772Z,51.53
2019-05-30T07:12:17.243Z,51.48
2019-05-30T07:16:23.413Z,51.07
2019-05-30T07:20:29.734Z,49.98
2019-05-30T07:24:35.525Z,49.46
2019-05-30T07:28:41.280Z,49.01
2019-05-30T07:32:47.386Z,47.86
2019-05-30T07:36:53.093Z,45.71
2019-05-30T07:40:58.829Z,45.63
2019-05-30T07:45:12.221Z,42.99
2019-05-30T07:49:17.971Z,41.38
2019-05-30T07:53:23.771Z,41.10
2019-05-30T07:57:30.217Z,40.58
2019-05-30T08:01:36.106Z,39.58
2019-05-30T08:05:41.928Z,39.05
2019-05-30T08:09:47.621Z,39.34
2019-05-30T08:13:53.333Z,37.20
2019-05-30T08:17:59.039Z,36.79
2019-05-30T08:22:05.219Z,36.46
2019-05-30T08:26:11.336Z,35.19
2019-05-30T08:30:17.857Z,34.83
2019-05-30T08:34:23.729Z,34.76
2019-05-30T08:38:29.470Z,34.78
2019-05-30T08:42:38.183Z,33.97
2019-05-30T08:46:43.949Z,32.97
2019-05-30T08:50:49.626Z,32.33
2019-05-30T08:54:55.312Z,32.07
2019-05-30T08:59:01.012Z,31.49
2019-05-30T09:03:06.824Z,30.88
2019-05-30T09:07:12.531Z,30.34
2019-05-30T09:11:18.213Z,28.75
2019-05-30T09:15:26.079Z,28.92
2019-05-30T09:19:31.760Z,29.09
2019-05-30T09:23:39.169Z,27.92
2019-05-30T09:27:46.490Z,27.90
2019-05-30T09:31:52.378Z,28.16
2019-05-30T09:36:12.121Z,29.01
2019-05-30T09:40:12.071Z,31.39
2019-05-30T09:44:17.745Z,32.34
2019-05-30T09:48:23.541Z,33.10
2019-05-30T09:52:29.372Z,31.96
2019-05-30T09:56:35.128Z,33.32
2019-05-30T10:00:42.919Z,32.84
2019-05-30T10:04:48.708Z,33.17
2019-05-30T10:08:54.485Z,34.36
2019-05-30T10:13:00.174Z,34.11
2019-05-30T10:17:06.507Z,34.26
2019-05-30T10:21:12.289Z,34.84
2019-05-30T10:25:18.471Z,34.29
2019-05-30T10:29:25.237Z,33.96
2019-05-30T10:33:31.019Z,29.26
2019-05-30T10:37:36.763Z,26.83
2019-05-30T10:41:42.481Z,28.99
2019-05-30T10:45:49.391Z,23.73
2019-05-30T10:49:55.210Z,25.81
2019-05-30T10:54:00.921Z,23.25
2019-05-30T10:58:06.996Z,25.23
2019-05-30T11:02:12.689Z,29.92
2019-05-30T11:06:25.593Z,25.53
2019-05-30T11:10:42.947Z,29.22
2019-05-30T11:14:50.236Z,29.20
2019-05-30T11:18:56.323Z,27.32
2019-05-30T11:23:02.097Z,30.89
2019-05-30T11:27:08.117Z,28.29
2019-05-30T11:31:13.810Z,29.49
2019-05-30T11:35:19.659Z,36.08
2019-05-30T11:39:25.725Z,29.91
2019-05-30T11:43:31.445Z,25.26
2019-05-30T11:47:37.296Z,28.50
2019-05-30T11:51:42.998Z,26.58
2019-05-30T11:55:50.128Z,20.55
2019-05-30T11:59:56.217Z,21.65
2019-05-30T12:04:01.889Z,22.52
2019-05-30T12:08:07.718Z,19.38
2019-05-30T12:12:13.393Z,19.47
2019-05-30T12:16:19.084Z,29.18
2019-05-30T12:20:25.187Z,26.04
2019-05-30T12:24:30.911Z,31.40
2019-05-30T12:28:36.608Z,37.11
2019-05-30T12:32:42.304Z,34.63
2019-05-30T12:36:48.016Z,39.70
2019-05-30T12:40:54.713Z,33.64
2019-05-30T12:45:06.643Z,27.21
2019-05-30T12:49:07.925Z,35.99
2019-05-30T12:53:13.613Z,33.67
2019-05-30T12:57:19.305Z,33.30
2019-05-30T13:01:27.502Z,28.93
2019-05-30T13:05:33.322Z,28.31
2019-05-30T13:09:39.107Z,32.14
2019-05-30T13:13:44.751Z,27.97
2019-05-30T13:17:50.484Z,26.94
2019-05-30T13:21:57.108Z,27.12
2019-05-30T13:26:03.815Z,39.02
2019-05-30T13:30:10.983Z,30.67
2019-05-30T13:34:16.675Z,33.50
2019-05-30T13:38:26.589Z,37.11
2019-05-30T13:42:29.713Z,28.33
2019-05-30T13:46:35.421Z,30.54
2019-05-30T13:50:41.240Z,29.48
2019-05-30T13:54:46.979Z,31.58
2019-05-30T13:58:52.691Z,31.94
2019-05-30T14:02:58.411Z,24.25
2019-05-30T14:07:06.277Z,30.67
2019-05-30T14:11:11.563Z,30.64
2019-05-30T14:15:18.466Z,27.60
2019-05-30T14:19:25.184Z,27.97
2019-05-30T14:23:30.958Z,31.28
2019-05-30T14:27:36.716Z,33.57
2019-05-30T14:31:42.442Z,37.89
2019-05-30T14:35:48.162Z,38.84
2019-05-30T14:39:53.830Z,40.59
2019-05-30T14:43:59.592Z,36.74
2019-05-30T14:48:06.430Z,36.24
2019-05-30T14:52:13.319Z,35.17
2019-05-30T14:56:19.076Z,41.60
2019-05-30T15:00:24.915Z,37.84
2019-05-30T15:04:30.983Z,38.61
2019-05-30T15:08:36.636Z,40.32
2019-05-30T15:12:42.530Z,37.31
2019-05-30T15:16:48.286Z,39.78
2019-05-30T15:20:54.054Z,36.23
2019-05-30T15:24:59.751Z,40.40
2019-05-30T15:29:05.987Z,37.31
2019-05-30T15:33:12.655Z,42.04
2019-05-30T15:37:18.344Z,41.56
2019-05-30T15:41:24.103Z,39.84
2019-05-30T15:45:29.793Z,34.92
2019-05-30T15:49:35.501Z,36.54
2019-05-30T15:53:41.169Z,35.03
2019-05-30T15:57:47.001Z,37.93
2019-05-30T16:01:52.817Z,42.54
2019-05-30T16:05:58.501Z,38.38
2019-05-30T16:10:05.934Z,34.74
2019-05-30T16:14:11.677Z,41.80
2019-05-30T16:18:17.730Z,41.50
2019-05-30T16:22:23.518Z,32.28
2019-05-30T16:26:29.283Z,31.75
2019-05-30T16:30:35.197Z,33.18
2019-05-30T16:34:40.972Z,34.55
2019-05-30T16:38:46.733Z,41.38
2019-05-30T16:42:52.580Z,38.62
2019-05-30T16:46:58.288Z,36.12
2019-05-30T16:55:17.188Z,33.94
2019-05-30T16:59:22.958Z,40.58
2019-05-30T17:03:28.663Z,40.46
2019-05-30T17:07:34.470Z,41.62
2019-05-30T17:11:40.153Z,37.10
2019-05-30T17:15:46.804Z,42.40
2019-05-30T17:19:52.528Z,44.83
2019-05-30T17:23:58.359Z,42.22
2019-05-30T17:28:04.192Z,39.91
2019-05-30T17:32:09.947Z,42.55
2019-05-30T17:36:15.727Z,42.16
2019-05-30T17:40:35.576Z,40.53
2019-05-30T17:44:29.798Z,42.51
2019-05-30T17:48:35.678Z,41.40
2019-05-30T17:52:41.469Z,38.86
2019-05-30T17:56:47.131Z,41.48
2019-05-30T18:00:52.818Z,42.38
2019-05-30T18:04:58.536Z,43.78
2019-05-30T18:09:06.073Z,42.18
2019-05-30T18:13:11.772Z,41.30
2019-05-30T18:17:17.557Z,42.76
2019-05-30T18:21:23.446Z,43.44
2019-05-30T18:25:30.135Z,44.49
2019-05-30T18:29:35.820Z,44.95
2019-05-30T18:33:41.533Z,41.81
2019-05-30T18:37:47.336Z,42.28
2019-05-30T18:41:53.114Z,42.42
2019-05-30T18:45:58.894Z,45.43
2019-05-30T18:50:06.222Z,42.87
2019-05-30T18:54:11.915Z,43.80
2019-05-30T18:58:17.609Z,43.03
2019-05-30T19:02:23.272Z,38.54
2019-05-30T19:06:29.977Z,40.36
2019-05-30T19:10:37.253Z,39.07
2019-05-30T19:14:47.406Z,39.69
2019-05-30T19:18:53.156Z,38.48
2019-05-30T19:22:58.868Z,42.55
2019-05-30T19:27:04.603Z,38.41
2019-05-30T19:31:10.363Z,38.98
2019-05-30T19:35:16.364Z,39.18
2019-05-30T19:39:22.061Z,39.84
2019-05-30T19:43:27.748Z,40.20
2019-05-30T19:47:34.575Z,40.21
2019-05-30T19:51:40.446Z,40.25
2019-05-30T19:55:46.121Z,40.17
2019-05-30T19:59:51.836Z,40.40
2019-05-30T20:03:57.519Z,40.21
2019-05-30T20:08:03.293Z,40.38
2019-05-30T20:12:09.313Z,40.55
2019-05-30T20:16:15.067Z,41.26
2019-05-30T20:20:21.038Z,41.38
2019-05-30T20:24:27.699Z,40.82
2019-05-30T20:28:34.713Z,41.04
2019-05-30T20:32:40.889Z,41.25
2019-05-30T20:36:46.946Z,42.07
2019-05-30T20:40:52.662Z,42.17
2019-05-30T20:44:58.438Z,42.61
2019-05-30T20:49:04.858Z,42.12
2019-05-30T20:53:10.635Z,43.18
2019-05-30T20:57:16.451Z,43.66
2019-05-30T21:01:22.173Z,44.07
2019-05-30T21:05:28.010Z,43.64
2019-05-30T21:09:36.413Z,43.15
2019-05-30T21:13:47.043Z,43.79
2019-05-30T21:17:56.045Z,44.57
2019-05-30T21:22:01.750Z,45.10
2019-05-30T21:26:07.514Z,47.21
2019-05-30T21:30:13.962Z,44.39
2019-05-30T21:34:19.713Z,44.54
2019-05-30T21:38:25.408Z,45.40
2019-05-30T21:42:31.304Z,45.10
2019-05-30T21:46:38.521Z,44.34
2019-05-30T21:50:46.039Z,44.84
2019-05-30T21:54:51.908Z,45.75
2019-05-30T21:58:57.615Z,53.03
2019-05-30T22:03:03.457Z,49.95
2019-05-30T22:07:09.175Z,45.08
2019-05-30T22:11:14.960Z,51.21
2019-05-30T22:15:20.802Z,50.04
2019-05-30T22:19:27.461Z,47.74
2019-05-30T22:23:33.158Z,47.73
2019-05-30T22:27:38.872Z,49.31
2019-05-30T22:35:50.991Z,47.47
2019-05-30T22:39:56.694Z,48.14
2019-05-30T22:44:02.573Z,48.88
2019-05-30T22:48:08.262Z,47.78
2019-05-30T22:52:13.951Z,50.32
2019-05-30T22:56:19.935Z,48.47
2019-05-30T23:00:26.609Z,45.43
2019-05-30T23:04:32.324Z,45.60
2019-05-30T23:08:38.122Z,47.84
2019-05-30T23:12:44.176Z,48.54
2019-05-30T23:16:50.258Z,47.82
2019-05-30T23:20:56.838Z,49.04
2019-05-30T23:25:02.669Z,47.35
2019-05-30T23:29:08.338Z,46.64
2019-05-30T23:33:14.044Z,49.51
2019-05-30T23:37:19.817Z,45.60
2019-05-30T23:41:25.555Z,47.59
2019-05-30T23:45:31.264Z,48.09
2019-05-30T23:49:37.994Z,45.32
2019-05-30T23:53:43.743Z,45.87
2019-05-30T23:57:50.348Z,46.48
